Dunnellon, FL (34432)

5:37 PM EDT on September 01, 2014 (GMT -0400)
Citrus Springs | Change Station
CLOSE
Current Station
Personal Weather Station
Location: Dunnellon, FL
Elevation: 63 ft
Nearby Weather Stations

Elev 63 ft 28.99 °N, 82.44 °W | Updated 1 minute ago

Scattered Clouds
Scattered Clouds
91.3 °F
Feels Like 107 °F
N
0.0
Wind Variable Wind from NNW
Gusts 0.0 mph

Today
High -- | Low -- °F
--% Chance of Precip.
Yesterday
High -- | Low -- °F
Precip. -- in
7:07 AM 7:51 PM
Waxing Crescent, 44% visible
Pressure 30.04 in
Visibility 10.0 miles
Clouds Scattered Clouds 5000 ft
Heat Index 107 °F
Dew Point 78 °F
Humidity 66%
Rainfall 0.00 in
Snow Depth Not available.
UV 5 out of 12
Pollen 5.20 out of 12
Air Quality Not available.
Flu Activity Not available.
METAR KOCF 012050Z 14005KT 10SM SCT050 34/21 A3004

More Conditions Fewer Conditions

Pressure 30.04 in
Visibility 10.0 miles
Clouds Scattered Clouds 5000 ft
Heat Index 107 °F
Dew Point 78 °F
Humidity 66%
Rainfall 0.00 in
Snow Depth Not available.
UV 5 out of 12
Pollen 5.20 out of 12
Air Quality Not available.
Flu Activity Not available.
METAR KOCF 012050Z 14005KT 10SM SCT050 34/21 A3004

More Conditions Fewer Conditions

10-Day Weather Forecast

Almanac

Astronomy

Sep. 01, 2014 Rise Set
Actual Time 7:07 AM EDT 7:51 PM EDT
Civil Twilight 6:43 AM EDT 8:15 PM EDT
Nautical Twilight 6:14 AM EDT 8:43 PM EDT
Astronomical Twilight 5:45 AM EDT 9:12 PM EDT
Moon 1:20 PM EDT No Moon Set
Length of Visible Light 13h 32m
Length of Day
12h 43m
Tomorrow will be 1m 41s shorter.
Waxing Crescent, 44% of the Moon is Illuminated
Today
Waxing Crescent
Sep 2
First Quarter
Sep 8
Full
Sep 15
Last Quarter
Sep 24
New

Today's Extremes

State Highs State Lows

Community

WunderPhotos

Upload Photos

1,749,416 photos uploaded!

WunderBlogs® & News

Nearby

Snow Depth

Station Depth Elevation
No new snow has been reported.

Earthquake Activity

City Distance Mag. Time & Date
No recent earthquake activity has been reported nearby.
Minimum magnitude displayed is 2.5.

Coastal Water Temperatures

Place Temperature
No Stations Reporting

Nearby Weather Stations